sensor_id;sensor_type;location;lat;lon;timestamp;P1;durP1;ratioP1;P2;durP2;ratioP2
81367;SDS011;70823;50.056;14.398;2024-03-17T00:02:16;2.42;;;1.58;;
81367;SDS011;70823;50.056;14.398;2024-03-17T00:04:41;1.98;;;1.50;;
81367;SDS011;70823;50.056;14.398;2024-03-17T00:07:07;1.80;;;1.30;;
81367;SDS011;70823;50.056;14.398;2024-03-17T00:09:33;2.80;;;1.20;;
81367;SDS011;70823;50.056;14.398;2024-03-17T00:11:58;2.07;;;1.50;;
81367;SDS011;70823;50.056;14.398;2024-03-17T00:14:24;1.40;;;1.30;;
81367;SDS011;70823;50.056;14.398;2024-03-17T00:16:50;1.90;;;1.40;;
81367;SDS011;70823;50.056;14.398;2024-03-17T00:19:15;1.92;;;1.30;;
81367;SDS011;70823;50.056;14.398;2024-03-17T00:21:42;2.10;;;1.50;;
81367;SDS011;70823;50.056;14.398;2024-03-17T00:24:07;1.48;;;1.20;;
81367;SDS011;70823;50.056;14.398;2024-03-17T00:26:33;2.95;;;1.42;;
81367;SDS011;70823;50.056;14.398;2024-03-17T00:28:59;1.50;;;1.40;;
81367;SDS011;70823;50.056;14.398;2024-03-17T00:31:24;1.40;;;1.30;;
81367;SDS011;70823;50.056;14.398;2024-03-17T00:33:53;1.73;;;1.20;;
81367;SDS011;70823;50.056;14.398;2024-03-17T00:36:18;2.05;;;1.40;;
81367;SDS011;70823;50.056;14.398;2024-03-17T00:38:44;1.60;;;1.30;;
81367;SDS011;70823;50.056;14.398;2024-03-17T00:41:09;2.45;;;2.05;;
81367;SDS011;70823;50.056;14.398;2024-03-17T00:43:34;2.00;;;1.33;;
81367;SDS011;70823;50.056;14.398;2024-03-17T00:46:00;1.67;;;1.10;;
81367;SDS011;70823;50.056;14.398;2024-03-17T00:48:25;2.17;;;1.50;;
81367;SDS011;70823;50.056;14.398;2024-03-17T00:50:57;1.53;;;1.20;;
81367;SDS011;70823;50.056;14.398;2024-03-17T00:53:23;1.30;;;1.20;;
81367;SDS011;70823;50.056;14.398;2024-03-17T00:55:53;2.40;;;1.48;;
81367;SDS011;70823;50.056;14.398;2024-03-17T00:58:21;1.58;;;1.35;;
81367;SDS011;70823;50.056;14.398;2024-03-17T01:03:15;1.67;;;1.33;;
81367;SDS011;70823;50.056;14.398;2024-03-17T01:05:41;2.13;;;1.38;;
81367;SDS011;70823;50.056;14.398;2024-03-17T01:08:12;2.17;;;1.48;;
81367;SDS011;70823;50.056;14.398;2024-03-17T01:10:38;2.00;;;1.50;;
81367;SDS011;70823;50.056;14.398;2024-03-17T01:13:06;1.73;;;1.33;;
81367;SDS011;70823;50.056;14.398;2024-03-17T01:15:32;1.85;;;1.40;;
81367;SDS011;70823;50.056;14.398;2024-03-17T01:17:58;1.67;;;1.50;;
81367;SDS011;70823;50.056;14.398;2024-03-17T01:20:24;2.28;;;1.40;;
81367;SDS011;70823;50.056;14.398;2024-03-17T01:22:50;2.47;;;1.50;;
81367;SDS011;70823;50.056;14.398;2024-03-17T01:25:15;1.83;;;1.30;;
81367;SDS011;70823;50.056;14.398;2024-03-17T01:27:40;2.72;;;1.40;;
81367;SDS011;70823;50.056;14.398;2024-03-17T01:30:06;1.70;;;1.40;;
81367;SDS011;70823;50.056;14.398;2024-03-17T01:32:32;2.00;;;1.42;;
81367;SDS011;70823;50.056;14.398;2024-03-17T01:34:58;1.60;;;1.20;;
81367;SDS011;70823;50.056;14.398;2024-03-17T01:37:23;1.20;;;1.10;;
81367;SDS011;70823;50.056;14.398;2024-03-17T01:39:49;3.53;;;1.70;;
81367;SDS011;70823;50.056;14.398;2024-03-17T01:42:14;2.30;;;1.40;;
81367;SDS011;70823;50.056;14.398;2024-03-17T01:44:40;2.70;;;1.40;;
81367;SDS011;70823;50.056;14.398;2024-03-17T01:47:05;1.70;;;1.13;;
81367;SDS011;70823;50.056;14.398;2024-03-17T01:49:30;2.25;;;1.30;;
81367;SDS011;70823;50.056;14.398;2024-03-17T01:51:56;2.35;;;1.30;;
81367;SDS011;70823;50.056;14.398;2024-03-17T01:54:21;1.50;;;1.40;;
81367;SDS011;70823;50.056;14.398;2024-03-17T01:56:47;1.48;;;1.20;;
81367;SDS011;70823;50.056;14.398;2024-03-17T01:59:13;1.88;;;1.17;;
81367;SDS011;70823;50.056;14.398;2024-03-17T02:01:39;3.17;;;1.35;;
81367;SDS011;70823;50.056;14.398;2024-03-17T02:04:05;2.35;;;1.20;;
81367;SDS011;70823;50.056;14.398;2024-03-17T02:06:31;1.15;;;1.00;;
81367;SDS011;70823;50.056;14.398;2024-03-17T02:08:57;1.65;;;1.23;;
81367;SDS011;70823;50.056;14.398;2024-03-17T02:11:26;1.93;;;1.30;;
81367;SDS011;70823;50.056;14.398;2024-03-17T02:13:53;1.20;;;1.10;;
81367;SDS011;70823;50.056;14.398;2024-03-17T02:16:18;2.65;;;1.40;;
81367;SDS011;70823;50.056;14.398;2024-03-17T02:18:44;2.25;;;1.48;;
81367;SDS011;70823;50.056;14.398;2024-03-17T02:21:10;1.70;;;1.40;;
81367;SDS011;70823;50.056;14.398;2024-03-17T02:23:36;2.65;;;1.45;;
81367;SDS011;70823;50.056;14.398;2024-03-17T02:26:02;2.47;;;1.40;;
81367;SDS011;70823;50.056;14.398;2024-03-17T02:28:27;1.65;;;1.30;;
81367;SDS011;70823;50.056;14.398;2024-03-17T02:30:52;2.00;;;1.40;;
81367;SDS011;70823;50.056;14.398;2024-03-17T02:33:18;1.75;;;1.38;;
81367;SDS011;70823;50.056;14.398;2024-03-17T02:35:44;1.77;;;1.55;;
81367;SDS011;70823;50.056;14.398;2024-03-17T02:38:09;2.13;;;1.50;;
81367;SDS011;70823;50.056;14.398;2024-03-17T02:40:40;1.85;;;1.25;;
81367;SDS011;70823;50.056;14.398;2024-03-17T02:43:05;1.67;;;1.33;;
81367;SDS011;70823;50.056;14.398;2024-03-17T02:45:31;1.75;;;1.23;;
81367;SDS011;70823;50.056;14.398;2024-03-17T02:47:57;1.80;;;1.10;;
81367;SDS011;70823;50.056;14.398;2024-03-17T02:50:22;1.80;;;1.50;;
81367;SDS011;70823;50.056;14.398;2024-03-17T02:52:47;2.20;;;1.93;;
81367;SDS011;70823;50.056;14.398;2024-03-17T02:55:12;1.90;;;1.30;;
81367;SDS011;70823;50.056;14.398;2024-03-17T02:57:38;1.95;;;1.40;;
81367;SDS011;70823;50.056;14.398;2024-03-17T03:00:04;2.35;;;1.50;;
81367;SDS011;70823;50.056;14.398;2024-03-17T03:02:30;1.50;;;1.40;;
81367;SDS011;70823;50.056;14.398;2024-03-17T03:04:55;2.23;;;1.50;;
81367;SDS011;70823;50.056;14.398;2024-03-17T03:07:20;1.23;;;1.10;;
81367;SDS011;70823;50.056;14.398;2024-03-17T03:09:46;2.17;;;1.47;;
81367;SDS011;70823;50.056;14.398;2024-03-17T03:12:12;1.95;;;1.30;;
81367;SDS011;70823;50.056;14.398;2024-03-17T03:14:37;2.10;;;1.40;;
81367;SDS011;70823;50.056;14.398;2024-03-17T03:17:02;1.97;;;1.23;;
81367;SDS011;70823;50.056;14.398;2024-03-17T03:19:28;2.00;;;1.60;;
81367;SDS011;70823;50.056;14.398;2024-03-17T03:21:55;3.45;;;1.40;;
81367;SDS011;70823;50.056;14.398;2024-03-17T03:24:20;1.80;;;1.30;;
81367;SDS011;70823;50.056;14.398;2024-03-17T03:26:46;1.45;;;1.30;;
81367;SDS011;70823;50.056;14.398;2024-03-17T03:29:13;1.80;;;1.40;;
81367;SDS011;70823;50.056;14.398;2024-03-17T03:31:39;1.95;;;1.20;;
81367;SDS011;70823;50.056;14.398;2024-03-17T03:34:05;1.42;;;1.33;;
81367;SDS011;70823;50.056;14.398;2024-03-17T03:36:33;2.17;;;1.13;;
81367;SDS011;70823;50.056;14.398;2024-03-17T03:38:58;2.17;;;1.50;;
81367;SDS011;70823;50.056;14.398;2024-03-17T03:41:23;1.97;;;1.23;;
81367;SDS011;70823;50.056;14.398;2024-03-17T03:43:49;1.42;;;1.13;;
81367;SDS011;70823;50.056;14.398;2024-03-17T03:46:15;2.33;;;1.10;;
81367;SDS011;70823;50.056;14.398;2024-03-17T03:48:40;2.50;;;1.30;;
81367;SDS011;70823;50.056;14.398;2024-03-17T03:51:06;1.40;;;1.30;;
81367;SDS011;70823;50.056;14.398;2024-03-17T03:53:32;1.73;;;1.50;;
81367;SDS011;70823;50.056;14.398;2024-03-17T03:55:58;1.85;;;1.45;;
81367;SDS011;70823;50.056;14.398;2024-03-17T03:58:26;1.63;;;1.20;;
81367;SDS011;70823;50.056;14.398;2024-03-17T04:00:51;1.40;;;1.30;;
81367;SDS011;70823;50.056;14.398;2024-03-17T04:03:17;1.57;;;1.43;;
81367;SDS011;70823;50.056;14.398;2024-03-17T04:05:42;1.20;;;1.10;;
81367;SDS011;70823;50.056;14.398;2024-03-17T04:08:08;1.88;;;1.30;;
81367;SDS011;70823;50.056;14.398;2024-03-17T04:10:33;1.67;;;1.20;;
81367;SDS011;70823;50.056;14.398;2024-03-17T04:12:59;1.80;;;1.30;;
81367;SDS011;70823;50.056;14.398;2024-03-17T04:15:24;1.73;;;1.17;;
81367;SDS011;70823;50.056;14.398;2024-03-17T04:17:49;2.10;;;1.70;;
81367;SDS011;70823;50.056;14.398;2024-03-17T04:20:15;2.27;;;1.30;;
81367;SDS011;70823;50.056;14.398;2024-03-17T04:22:41;1.75;;;1.45;;
81367;SDS011;70823;50.056;14.398;2024-03-17T04:25:08;1.77;;;1.40;;
81367;SDS011;70823;50.056;14.398;2024-03-17T04:27:34;1.75;;;1.30;;
81367;SDS011;70823;50.056;14.398;2024-03-17T04:29:59;1.57;;;1.33;;
81367;SDS011;70823;50.056;14.398;2024-03-17T04:32:25;1.77;;;1.40;;
81367;SDS011;70823;50.056;14.398;2024-03-17T04:34:53;2.38;;;1.48;;
81367;SDS011;70823;50.056;14.398;2024-03-17T04:37:19;1.97;;;1.50;;
81367;SDS011;70823;50.056;14.398;2024-03-17T04:39:44;2.07;;;1.40;;
81367;SDS011;70823;50.056;14.398;2024-03-17T04:42:11;1.35;;;1.17;;
81367;SDS011;70823;50.056;14.398;2024-03-17T04:44:40;2.10;;;1.25;;
81367;SDS011;70823;50.056;14.398;2024-03-17T04:47:09;2.33;;;1.30;;
81367;SDS011;70823;50.056;14.398;2024-03-17T04:49:38;1.45;;;1.20;;
81367;SDS011;70823;50.056;14.398;2024-03-17T04:52:04;2.38;;;1.10;;
81367;SDS011;70823;50.056;14.398;2024-03-17T04:54:33;1.77;;;1.63;;
81367;SDS011;70823;50.056;14.398;2024-03-17T04:56:59;1.80;;;1.35;;
81367;SDS011;70823;50.056;14.398;2024-03-17T04:59:24;1.70;;;1.20;;
81367;SDS011;70823;50.056;14.398;2024-03-17T05:01:49;1.58;;;1.30;;
81367;SDS011;70823;50.056;14.398;2024-03-17T05:04:15;1.95;;;1.40;;
81367;SDS011;70823;50.056;14.398;2024-03-17T05:06:40;1.47;;;1.10;;
81367;SDS011;70823;50.056;14.398;2024-03-17T05:09:07;3.67;;;1.35;;
81367;SDS011;70823;50.056;14.398;2024-03-17T05:11:32;2.05;;;1.48;;
81367;SDS011;70823;50.056;14.398;2024-03-17T05:14:00;1.75;;;1.35;;
81367;SDS011;70823;50.056;14.398;2024-03-17T05:16:25;2.03;;;1.40;;
81367;SDS011;70823;50.056;14.398;2024-03-17T05:18:50;2.30;;;1.40;;
81367;SDS011;70823;50.056;14.398;2024-03-17T05:21:16;1.90;;;1.35;;
81367;SDS011;70823;50.056;14.398;2024-03-17T05:23:41;1.57;;;1.43;;
81367;SDS011;70823;50.056;14.398;2024-03-17T05:26:07;1.85;;;1.20;;
81367;SDS011;70823;50.056;14.398;2024-03-17T05:28:32;1.87;;;1.20;;
81367;SDS011;70823;50.056;14.398;2024-03-17T05:30:58;1.60;;;1.25;;
81367;SDS011;70823;50.056;14.398;2024-03-17T05:33:23;1.48;;;1.20;;
81367;SDS011;70823;50.056;14.398;2024-03-17T05:35:54;1.45;;;1.10;;
81367;SDS011;70823;50.056;14.398;2024-03-17T05:38:21;1.73;;;1.27;;
81367;SDS011;70823;50.056;14.398;2024-03-17T05:43:18;1.55;;;1.20;;
81367;SDS011;70823;50.056;14.398;2024-03-17T05:45:44;2.28;;;1.30;;
81367;SDS011;70823;50.056;14.398;2024-03-17T05:48:09;1.83;;;1.33;;
81367;SDS011;70823;50.056;14.398;2024-03-17T05:50:34;2.08;;;1.25;;
81367;SDS011;70823;50.056;14.398;2024-03-17T05:53:00;4.03;;;1.40;;
81367;SDS011;70823;50.056;14.398;2024-03-17T05:55:25;1.83;;;1.40;;
81367;SDS011;70823;50.056;14.398;2024-03-17T05:57:50;2.13;;;1.50;;
81367;SDS011;70823;50.056;14.398;2024-03-17T06:00:16;1.90;;;1.40;;
81367;SDS011;70823;50.056;14.398;2024-03-17T06:02:41;2.50;;;1.50;;
81367;SDS011;70823;50.056;14.398;2024-03-17T06:05:06;1.97;;;1.67;;
81367;SDS011;70823;50.056;14.398;2024-03-17T06:07:35;2.78;;;1.80;;
81367;SDS011;70823;50.056;14.398;2024-03-17T06:10:00;2.25;;;1.80;;
81367;SDS011;70823;50.056;14.398;2024-03-17T06:12:25;2.67;;;1.90;;
81367;SDS011;70823;50.056;14.398;2024-03-17T06:14:51;3.20;;;2.00;;
81367;SDS011;70823;50.056;14.398;2024-03-17T06:17:16;3.40;;;2.03;;
81367;SDS011;70823;50.056;14.398;2024-03-17T06:19:41;3.57;;;1.80;;
81367;SDS011;70823;50.056;14.398;2024-03-17T06:22:07;2.88;;;2.00;;
81367;SDS011;70823;50.056;14.398;2024-03-17T06:24:32;3.23;;;2.30;;
81367;SDS011;70823;50.056;14.398;2024-03-17T06:26:57;5.03;;;2.20;;
81367;SDS011;70823;50.056;14.398;2024-03-17T06:29:23;3.47;;;2.27;;
81367;SDS011;70823;50.056;14.398;2024-03-17T06:31:48;4.07;;;2.37;;
81367;SDS011;70823;50.056;14.398;2024-03-17T06:34:14;3.25;;;2.17;;
81367;SDS011;70823;50.056;14.398;2024-03-17T06:36:40;5.10;;;2.47;;
81367;SDS011;70823;50.056;14.398;2024-03-17T06:39:07;4.05;;;2.53;;
81367;SDS011;70823;50.056;14.398;2024-03-17T06:41:32;4.13;;;2.37;;
81367;SDS011;70823;50.056;14.398;2024-03-17T06:43:57;3.80;;;2.07;;
81367;SDS011;70823;50.056;14.398;2024-03-17T06:46:24;3.20;;;2.10;;
81367;SDS011;70823;50.056;14.398;2024-03-17T06:48:49;3.80;;;2.30;;
81367;SDS011;70823;50.056;14.398;2024-03-17T06:51:16;3.67;;;2.17;;
81367;SDS011;70823;50.056;14.398;2024-03-17T06:53:41;3.67;;;2.17;;
81367;SDS011;70823;50.056;14.398;2024-03-17T06:56:07;3.53;;;2.10;;
81367;SDS011;70823;50.056;14.398;2024-03-17T06:58:33;4.38;;;2.25;;
81367;SDS011;70823;50.056;14.398;2024-03-17T07:01:01;4.33;;;2.80;;
81367;SDS011;70823;50.056;14.398;2024-03-17T07:03:30;3.88;;;2.20;;
81367;SDS011;70823;50.056;14.398;2024-03-17T07:05:57;3.50;;;2.30;;
81367;SDS011;70823;50.056;14.398;2024-03-17T07:08:23;4.15;;;2.33;;
81367;SDS011;70823;50.056;14.398;2024-03-17T07:13:20;5.00;;;2.03;;
81367;SDS011;70823;50.056;14.398;2024-03-17T07:15:49;4.20;;;2.30;;
81367;SDS011;70823;50.056;14.398;2024-03-17T07:18:14;3.42;;;2.00;;
81367;SDS011;70823;50.056;14.398;2024-03-17T07:20:40;3.53;;;2.33;;
81367;SDS011;70823;50.056;14.398;2024-03-17T07:23:05;3.60;;;2.17;;
81367;SDS011;70823;50.056;14.398;2024-03-17T07:25:30;3.27;;;2.10;;
81367;SDS011;70823;50.056;14.398;2024-03-17T07:27:56;4.13;;;2.33;;
81367;SDS011;70823;50.056;14.398;2024-03-17T07:30:21;5.50;;;2.20;;
81367;SDS011;70823;50.056;14.398;2024-03-17T07:32:46;3.85;;;2.08;;
81367;SDS011;70823;50.056;14.398;2024-03-17T07:35:12;5.00;;;2.42;;
81367;SDS011;70823;50.056;14.398;2024-03-17T07:37:37;3.30;;;2.08;;
81367;SDS011;70823;50.056;14.398;2024-03-17T07:40:04;4.38;;;2.22;;
81367;SDS011;70823;50.056;14.398;2024-03-17T07:42:31;5.82;;;2.30;;
81367;SDS011;70823;50.056;14.398;2024-03-17T07:44:56;3.50;;;2.00;;
81367;SDS011;70823;50.056;14.398;2024-03-17T07:47:22;5.30;;;2.15;;
81367;SDS011;70823;50.056;14.398;2024-03-17T07:49:47;3.83;;;2.00;;
81367;SDS011;70823;50.056;14.398;2024-03-17T07:52:13;3.60;;;2.00;;
81367;SDS011;70823;50.056;14.398;2024-03-17T07:54:38;3.30;;;2.20;;
81367;SDS011;70823;50.056;14.398;2024-03-17T07:57:03;3.10;;;2.00;;
81367;SDS011;70823;50.056;14.398;2024-03-17T07:59:29;4.10;;;2.30;;
81367;SDS011;70823;50.056;14.398;2024-03-17T08:01:55;3.65;;;2.00;;
81367;SDS011;70823;50.056;14.398;2024-03-17T08:04:21;3.50;;;2.05;;
81367;SDS011;70823;50.056;14.398;2024-03-17T08:06:46;3.70;;;2.10;;
81367;SDS011;70823;50.056;14.398;2024-03-17T08:09:12;4.27;;;2.10;;
81367;SDS011;70823;50.056;14.398;2024-03-17T08:11:37;4.73;;;2.30;;
81367;SDS011;70823;50.056;14.398;2024-03-17T08:14:03;4.47;;;2.17;;
81367;SDS011;70823;50.056;14.398;2024-03-17T08:16:29;4.28;;;2.30;;
81367;SDS011;70823;50.056;14.398;2024-03-17T08:18:55;2.85;;;2.30;;
81367;SDS011;70823;50.056;14.398;2024-03-17T08:21:21;5.38;;;2.80;;
81367;SDS011;70823;50.056;14.398;2024-03-17T08:23:46;4.27;;;2.57;;
81367;SDS011;70823;50.056;14.398;2024-03-17T08:26:12;4.00;;;2.50;;
81367;SDS011;70823;50.056;14.398;2024-03-17T08:28:37;4.60;;;2.33;;
81367;SDS011;70823;50.056;14.398;2024-03-17T08:31:03;4.53;;;2.70;;
81367;SDS011;70823;50.056;14.398;2024-03-17T08:33:29;4.10;;;2.22;;
81367;SDS011;70823;50.056;14.398;2024-03-17T08:35:56;3.67;;;2.35;;
81367;SDS011;70823;50.056;14.398;2024-03-17T08:38:24;2.60;;;2.28;;
81367;SDS011;70823;50.056;14.398;2024-03-17T08:40:51;3.92;;;2.53;;
81367;SDS011;70823;50.056;14.398;2024-03-17T08:43:16;5.13;;;2.40;;
81367;SDS011;70823;50.056;14.398;2024-03-17T08:45:42;5.10;;;2.35;;
81367;SDS011;70823;50.056;14.398;2024-03-17T08:48:08;4.18;;;2.33;;
81367;SDS011;70823;50.056;14.398;2024-03-17T08:50:35;3.55;;;2.65;;
81367;SDS011;70823;50.056;14.398;2024-03-17T08:53:00;3.50;;;2.30;;
81367;SDS011;70823;50.056;14.398;2024-03-17T08:55:25;5.50;;;2.53;;
81367;SDS011;70823;50.056;14.398;2024-03-17T08:57:51;3.93;;;2.30;;
81367;SDS011;70823;50.056;14.398;2024-03-17T09:00:16;4.13;;;2.20;;
81367;SDS011;70823;50.056;14.398;2024-03-17T09:02:42;4.53;;;2.53;;
81367;SDS011;70823;50.056;14.398;2024-03-17T09:05:07;3.55;;;2.10;;
81367;SDS011;70823;50.056;14.398;2024-03-17T09:07:33;3.75;;;1.90;;
81367;SDS011;70823;50.056;14.398;2024-03-17T09:09:58;5.00;;;2.40;;
81367;SDS011;70823;50.056;14.398;2024-03-17T09:12:24;4.82;;;2.10;;
81367;SDS011;70823;50.056;14.398;2024-03-17T09:14:49;2.85;;;2.05;;
81367;SDS011;70823;50.056;14.398;2024-03-17T09:17:15;4.83;;;1.83;;
81367;SDS011;70823;50.056;14.398;2024-03-17T09:19:40;3.95;;;2.08;;
81367;SDS011;70823;50.056;14.398;2024-03-17T09:22:06;4.10;;;2.10;;
81367;SDS011;70823;50.056;14.398;2024-03-17T09:24:31;3.13;;;1.88;;
81367;SDS011;70823;50.056;14.398;2024-03-17T09:26:56;3.77;;;1.97;;
81367;SDS011;70823;50.056;14.398;2024-03-17T09:29:22;4.10;;;1.80;;
81367;SDS011;70823;50.056;14.398;2024-03-17T09:31:47;3.33;;;1.70;;
81367;SDS011;70823;50.056;14.398;2024-03-17T09:34:14;3.67;;;2.00;;
81367;SDS011;70823;50.056;14.398;2024-03-17T09:36:39;4.83;;;2.03;;
81367;SDS011;70823;50.056;14.398;2024-03-17T09:39:05;3.17;;;1.90;;
81367;SDS011;70823;50.056;14.398;2024-03-17T09:41:30;5.00;;;2.13;;
81367;SDS011;70823;50.056;14.398;2024-03-17T09:43:56;3.53;;;2.00;;
81367;SDS011;70823;50.056;14.398;2024-03-17T09:46:22;3.47;;;1.83;;
81367;SDS011;70823;50.056;14.398;2024-03-17T09:48:48;4.80;;;2.10;;
81367;SDS011;70823;50.056;14.398;2024-03-17T09:51:21;4.03;;;1.98;;
81367;SDS011;70823;50.056;14.398;2024-03-17T09:53:48;4.15;;;1.98;;
81367;SDS011;70823;50.056;14.398;2024-03-17T09:56:15;3.38;;;1.98;;
81367;SDS011;70823;50.056;14.398;2024-03-17T09:58:44;4.10;;;2.05;;
81367;SDS011;70823;50.056;14.398;2024-03-17T10:01:12;4.18;;;2.22;;
81367;SDS011;70823;50.056;14.398;2024-03-17T10:06:16;2.90;;;1.90;;
81367;SDS011;70823;50.056;14.398;2024-03-17T10:08:46;2.88;;;1.80;;
81367;SDS011;70823;50.056;14.398;2024-03-17T10:11:22;4.75;;;1.90;;
81367;SDS011;70823;50.056;14.398;2024-03-17T10:14:04;3.47;;;2.13;;
81367;SDS011;70823;50.056;14.398;2024-03-17T10:16:31;3.58;;;2.00;;
81367;SDS011;70823;50.056;14.398;2024-03-17T10:21:39;3.03;;;1.95;;
81367;SDS011;70823;50.056;14.398;2024-03-17T10:24:12;2.90;;;2.17;;
81367;SDS011;70823;50.056;14.398;2024-03-17T10:26:48;2.33;;;1.73;;
81367;SDS011;70823;50.056;14.398;2024-03-17T10:29:22;4.95;;;1.85;;
81367;SDS011;70823;50.056;14.398;2024-03-17T10:31:55;2.88;;;1.75;;
81367;SDS011;70823;50.056;14.398;2024-03-17T10:34:22;2.17;;;1.67;;
81367;SDS011;70823;50.056;14.398;2024-03-17T10:36:51;2.20;;;1.52;;
81367;SDS011;70823;50.056;14.398;2024-03-17T10:39:22;2.60;;;1.40;;
81367;SDS011;70823;50.056;14.398;2024-03-17T10:41:57;3.42;;;1.70;;
81367;SDS011;70823;50.056;14.398;2024-03-17T10:44:25;3.30;;;1.85;;
81367;SDS011;70823;50.056;14.398;2024-03-17T10:46:52;4.00;;;1.95;;
81367;SDS011;70823;50.056;14.398;2024-03-17T10:49:19;3.40;;;2.00;;
81367;SDS011;70823;50.056;14.398;2024-03-17T10:51:44;3.88;;;1.75;;
81367;SDS011;70823;50.056;14.398;2024-03-17T10:54:14;3.60;;;1.90;;
81367;SDS011;70823;50.056;14.398;2024-03-17T10:56:46;2.67;;;1.75;;
81367;SDS011;70823;50.056;14.398;2024-03-17T10:59:12;2.47;;;1.50;;
81367;SDS011;70823;50.056;14.398;2024-03-17T11:01:38;3.75;;;2.13;;
81367;SDS011;70823;50.056;14.398;2024-03-17T11:04:03;3.70;;;2.05;;
81367;SDS011;70823;50.056;14.398;2024-03-17T11:06:29;2.72;;;1.70;;
81367;SDS011;70823;50.056;14.398;2024-03-17T11:08:55;3.05;;;1.83;;
81367;SDS011;70823;50.056;14.398;2024-03-17T11:11:36;3.25;;;2.13;;
81367;SDS011;70823;50.056;14.398;2024-03-17T11:14:17;5.25;;;2.10;;
81367;SDS011;70823;50.056;14.398;2024-03-17T11:16:47;2.88;;;2.05;;
81367;SDS011;70823;50.056;14.398;2024-03-17T11:19:15;3.63;;;2.20;;
81367;SDS011;70823;50.056;14.398;2024-03-17T11:21:42;3.53;;;2.25;;
81367;SDS011;70823;50.056;14.398;2024-03-17T11:24:17;2.50;;;1.70;;
81367;SDS011;70823;50.056;14.398;2024-03-17T11:26:45;4.32;;;2.00;;
81367;SDS011;70823;50.056;14.398;2024-03-17T11:29:25;4.57;;;2.00;;
81367;SDS011;70823;50.056;14.398;2024-03-17T11:31:52;3.67;;;2.05;;
81367;SDS011;70823;50.056;14.398;2024-03-17T11:34:37;3.40;;;2.65;;
81367;SDS011;70823;50.056;14.398;2024-03-17T11:37:06;2.72;;;1.90;;
81367;SDS011;70823;50.056;14.398;2024-03-17T11:42:18;3.45;;;2.05;;
81367;SDS011;70823;50.056;14.398;2024-03-17T11:44:44;3.10;;;1.63;;
81367;SDS011;70823;50.056;14.398;2024-03-17T11:47:20;3.47;;;1.90;;
81367;SDS011;70823;50.056;14.398;2024-03-17T11:49:46;3.23;;;2.20;;
81367;SDS011;70823;50.056;14.398;2024-03-17T11:52:15;3.67;;;2.40;;
81367;SDS011;70823;50.056;14.398;2024-03-17T11:54:42;4.47;;;2.00;;
81367;SDS011;70823;50.056;14.398;2024-03-17T11:57:09;4.18;;;2.20;;
81367;SDS011;70823;50.056;14.398;2024-03-17T11:59:35;3.45;;;2.17;;
81367;SDS011;70823;50.056;14.398;2024-03-17T12:02:02;4.10;;;2.20;;
81367;SDS011;70823;50.056;14.398;2024-03-17T12:04:38;3.35;;;1.88;;
81367;SDS011;70823;50.056;14.398;2024-03-17T12:07:07;3.88;;;2.03;;
81367;SDS011;70823;50.056;14.398;2024-03-17T12:09:37;2.70;;;1.92;;
81367;SDS011;70823;50.056;14.398;2024-03-17T12:12:06;3.20;;;2.27;;
81367;SDS011;70823;50.056;14.398;2024-03-17T12:14:32;3.53;;;2.10;;
81367;SDS011;70823;50.056;14.398;2024-03-17T12:16:59;4.30;;;2.00;;
81367;SDS011;70823;50.056;14.398;2024-03-17T12:19:26;3.63;;;2.03;;
81367;SDS011;70823;50.056;14.398;2024-03-17T12:21:52;2.80;;;1.90;;
81367;SDS011;70823;50.056;14.398;2024-03-17T12:24:25;3.45;;;1.65;;
81367;SDS011;70823;50.056;14.398;2024-03-17T12:26:52;3.10;;;2.00;;
81367;SDS011;70823;50.056;14.398;2024-03-17T12:31:51;2.88;;;1.83;;
81367;SDS011;70823;50.056;14.398;2024-03-17T12:34:16;2.92;;;2.10;;
81367;SDS011;70823;50.056;14.398;2024-03-17T12:36:43;3.15;;;1.90;;
81367;SDS011;70823;50.056;14.398;2024-03-17T12:39:10;3.50;;;2.10;;
81367;SDS011;70823;50.056;14.398;2024-03-17T12:41:36;2.92;;;1.92;;
81367;SDS011;70823;50.056;14.398;2024-03-17T12:44:02;3.80;;;2.07;;
81367;SDS011;70823;50.056;14.398;2024-03-17T12:46:28;4.43;;;2.00;;
81367;SDS011;70823;50.056;14.398;2024-03-17T12:48:59;3.33;;;2.00;;
81367;SDS011;70823;50.056;14.398;2024-03-17T12:51:25;2.47;;;1.85;;
81367;SDS011;70823;50.056;14.398;2024-03-17T12:53:50;3.28;;;1.92;;
81367;SDS011;70823;50.056;14.398;2024-03-17T12:56:22;3.33;;;2.47;;
81367;SDS011;70823;50.056;14.398;2024-03-17T12:59:09;3.28;;;1.88;;
81367;SDS011;70823;50.056;14.398;2024-03-17T13:01:53;2.65;;;1.77;;
81367;SDS011;70823;50.056;14.398;2024-03-17T13:04:26;3.35;;;1.88;;
81367;SDS011;70823;50.056;14.398;2024-03-17T13:06:51;2.87;;;2.30;;
81367;SDS011;70823;50.056;14.398;2024-03-17T13:09:17;3.03;;;1.67;;
81367;SDS011;70823;50.056;14.398;2024-03-17T13:11:42;3.40;;;1.52;;
81367;SDS011;70823;50.056;14.398;2024-03-17T13:14:07;3.47;;;1.88;;
81367;SDS011;70823;50.056;14.398;2024-03-17T13:16:38;3.20;;;1.85;;
81367;SDS011;70823;50.056;14.398;2024-03-17T13:19:04;3.27;;;1.90;;
81367;SDS011;70823;50.056;14.398;2024-03-17T13:21:29;3.23;;;1.97;;
81367;SDS011;70823;50.056;14.398;2024-03-17T13:23:55;4.50;;;2.10;;
81367;SDS011;70823;50.056;14.398;2024-03-17T13:26:20;2.65;;;1.83;;
81367;SDS011;70823;50.056;14.398;2024-03-17T13:28:45;4.10;;;1.80;;
81367;SDS011;70823;50.056;14.398;2024-03-17T13:31:11;3.63;;;1.90;;
81367;SDS011;70823;50.056;14.398;2024-03-17T13:33:37;3.25;;;1.92;;
81367;SDS011;70823;50.056;14.398;2024-03-17T13:36:03;2.25;;;1.70;;
81367;SDS011;70823;50.056;14.398;2024-03-17T13:38:29;2.80;;;1.88;;
81367;SDS011;70823;50.056;14.398;2024-03-17T13:40:54;2.25;;;1.70;;
81367;SDS011;70823;50.056;14.398;2024-03-17T13:43:19;2.60;;;1.60;;
81367;SDS011;70823;50.056;14.398;2024-03-17T13:45:45;3.40;;;1.80;;
81367;SDS011;70823;50.056;14.398;2024-03-17T13:48:12;2.78;;;1.70;;
81367;SDS011;70823;50.056;14.398;2024-03-17T13:50:38;2.70;;;1.80;;
81367;SDS011;70823;50.056;14.398;2024-03-17T13:53:05;3.00;;;1.75;;
81367;SDS011;70823;50.056;14.398;2024-03-17T13:55:31;3.28;;;1.85;;
81367;SDS011;70823;50.056;14.398;2024-03-17T13:57:57;3.60;;;1.60;;
81367;SDS011;70823;50.056;14.398;2024-03-17T14:00:26;3.25;;;1.90;;
81367;SDS011;70823;50.056;14.398;2024-03-17T14:02:53;2.78;;;1.63;;
81367;SDS011;70823;50.056;14.398;2024-03-17T14:05:20;3.55;;;1.63;;
81367;SDS011;70823;50.056;14.398;2024-03-17T14:07:46;2.92;;;1.80;;
81367;SDS011;70823;50.056;14.398;2024-03-17T14:10:15;3.10;;;1.83;;
81367;SDS011;70823;50.056;14.398;2024-03-17T14:12:42;2.95;;;2.10;;
81367;SDS011;70823;50.056;14.398;2024-03-17T14:15:07;2.83;;;1.85;;
81367;SDS011;70823;50.056;14.398;2024-03-17T14:20:01;2.42;;;1.75;;
81367;SDS011;70823;50.056;14.398;2024-03-17T14:22:26;3.23;;;1.93;;
81367;SDS011;70823;50.056;14.398;2024-03-17T14:24:51;2.43;;;1.60;;
81367;SDS011;70823;50.056;14.398;2024-03-17T14:27:17;2.17;;;1.70;;
81367;SDS011;70823;50.056;14.398;2024-03-17T14:29:45;3.07;;;1.90;;
81367;SDS011;70823;50.056;14.398;2024-03-17T14:32:10;2.88;;;1.88;;
81367;SDS011;70823;50.056;14.398;2024-03-17T14:34:35;2.80;;;1.90;;
81367;SDS011;70823;50.056;14.398;2024-03-17T14:37:03;2.88;;;1.73;;
81367;SDS011;70823;50.056;14.398;2024-03-17T14:39:28;2.60;;;2.10;;
81367;SDS011;70823;50.056;14.398;2024-03-17T14:41:54;2.83;;;1.90;;
81367;SDS011;70823;50.056;14.398;2024-03-17T14:44:20;3.00;;;2.10;;
81367;SDS011;70823;50.056;14.398;2024-03-17T14:46:46;2.55;;;1.80;;
81367;SDS011;70823;50.056;14.398;2024-03-17T14:49:12;2.83;;;1.90;;
81367;SDS011;70823;50.056;14.398;2024-03-17T14:51:37;2.70;;;1.70;;